sensor_id;sensor_type;location;lat;lon;timestamp;P1;P2;P0
69746;PMS7003;57018;50.278;19.134;2022-09-21T00:00:38;26.00;22.00;13.00
69746;PMS7003;57018;50.278;19.134;2022-09-21T00:03:05;19.00;19.00;13.00
69746;PMS7003;57018;50.278;19.134;2022-09-21T00:05:32;20.00;17.00;13.00
69746;PMS7003;57018;50.278;19.134;2022-09-21T00:08:00;20.50;16.25;11.50
69746;PMS7003;57018;50.278;19.134;2022-09-21T00:10:28;21.50;16.25;11.00
69746;PMS7003;57018;50.278;19.134;2022-09-21T00:12:55;19.00;17.00;11.50
69746;PMS7003;57018;50.278;19.134;2022-09-21T00:15:25;17.75;15.25;11.00
69746;PMS7003;57018;50.278;19.134;2022-09-21T00:17:51;20.00;17.00;11.75
69746;PMS7003;57018;50.278;19.134;2022-09-21T00:20:18;18.00;15.00;10.00
69746;PMS7003;57018;50.278;19.134;2022-09-21T00:22:50;17.00;16.25;12.00
69746;PMS7003;57018;50.278;19.134;2022-09-21T00:25:13;17.75;15.75;11.25
69746;PMS7003;57018;50.278;19.134;2022-09-21T00:27:40;21.00;18.00;12.00
69746;PMS7003;57018;50.278;19.134;2022-09-21T00:30:06;20.75;19.00;13.50
69746;PMS7003;57018;50.278;19.134;2022-09-21T00:32:35;16.00;16.00;11.00
69746;PMS7003;57018;50.278;19.134;2022-09-21T00:35:04;18.50;15.50;12.75
69746;PMS7003;57018;50.278;19.134;2022-09-21T00:37:32;17.50;15.75;11.25
69746;PMS7003;57018;50.278;19.134;2022-09-21T00:39:59;23.75;17.75;12.00
69746;PMS7003;57018;50.278;19.134;2022-09-21T00:42:27;19.00;18.25;12.75
69746;PMS7003;57018;50.278;19.134;2022-09-21T00:44:55;14.75;14.75;10.75
69746;PMS7003;57018;50.278;19.134;2022-09-21T00:47:22;22.00;16.25;10.75
69746;PMS7003;57018;50.278;19.134;2022-09-21T00:49:54;15.75;15.75;12.50
69746;PMS7003;57018;50.278;19.134;2022-09-21T00:52:24;19.00;19.00;12.75
69746;PMS7003;57018;50.278;19.134;2022-09-21T00:55:01;17.25;17.25;13.00
69746;PMS7003;57018;50.278;19.134;2022-09-21T00:57:26;15.50;15.25;11.00
69746;PMS7003;57018;50.278;19.134;2022-09-21T00:59:59;20.75;19.75;13.00
69746;PMS7003;57018;50.278;19.134;2022-09-21T01:02:26;17.50;16.75;11.75
69746;PMS7003;57018;50.278;19.134;2022-09-21T01:04:52;20.25;16.00;12.25
69746;PMS7003;57018;50.278;19.134;2022-09-21T01:07:21;17.50;16.75;10.00
69746;PMS7003;57018;50.278;19.134;2022-09-21T01:09:51;17.50;16.00;11.75
69746;PMS7003;57018;50.278;19.134;2022-09-21T01:15:04;16.25;14.00;11.00
69746;PMS7003;57018;50.278;19.134;2022-09-21T01:20:24;21.00;17.50;13.00
69746;PMS7003;57018;50.278;19.134;2022-09-21T01:26:01;19.75;18.00;13.00
69746;PMS7003;57018;50.278;19.134;2022-09-21T01:28:33;18.50;17.25;12.50
69746;PMS7003;57018;50.278;19.134;2022-09-21T01:31:15;17.25;15.50;12.00
69746;PMS7003;57018;50.278;19.134;2022-09-21T01:33:48;20.00;14.75;7.25
69746;PMS7003;57018;50.278;19.134;2022-09-21T01:36:21;16.25;13.25;11.00
69746;PMS7003;57018;50.278;19.134;2022-09-21T01:38:54;18.00;16.50;11.75
69746;PMS7003;57018;50.278;19.134;2022-09-21T01:41:20;15.75;14.50;10.25
69746;PMS7003;57018;50.278;19.134;2022-09-21T01:43:52;18.75;18.00;11.75
69746;PMS7003;57018;50.278;19.134;2022-09-21T01:46:20;18.75;15.75;12.00
69746;PMS7003;57018;50.278;19.134;2022-09-21T01:48:54;16.25;13.50;11.00
69746;PMS7003;57018;50.278;19.134;2022-09-21T01:51:23;16.50;15.75;11.00
69746;PMS7003;57018;50.278;19.134;2022-09-21T01:56:26;16.75;16.75;11.50
69746;PMS7003;57018;50.278;19.134;2022-09-21T02:01:30;17.75;15.75;12.00
69746;PMS7003;57018;50.278;19.134;2022-09-21T02:04:00;21.50;21.50;12.75
69746;PMS7003;57018;50.278;19.134;2022-09-21T02:06:29;18.25;17.50;11.25
69746;PMS7003;57018;50.278;19.134;2022-09-21T02:08:56;21.50;19.00;12.25
69746;PMS7003;57018;50.278;19.134;2022-09-21T02:11:22;20.00;18.50;14.00
69746;PMS7003;57018;50.278;19.134;2022-09-21T02:13:50;22.75;20.75;15.25
69746;PMS7003;57018;50.278;19.134;2022-09-21T02:16:29;28.00;21.25;16.25
69746;PMS7003;57018;50.278;19.134;2022-09-21T02:19:08;22.00;20.50;13.25
69746;PMS7003;57018;50.278;19.134;2022-09-21T02:24:42;25.50;24.00;16.00
69746;PMS7003;57018;50.278;19.134;2022-09-21T02:30:08;24.00;22.25;15.75
69746;PMS7003;57018;50.278;19.134;2022-09-21T02:41:03;19.50;19.50;14.25
69746;PMS7003;57018;50.278;19.134;2022-09-21T02:43:42;23.00;22.75;15.00
69746;PMS7003;57018;50.278;19.134;2022-09-21T02:46:30;18.50;17.50;13.00
69746;PMS7003;57018;50.278;19.134;2022-09-21T02:48:59;24.00;23.25;15.75
69746;PMS7003;57018;50.278;19.134;2022-09-21T02:51:28;27.00;24.75;16.25
69746;PMS7003;57018;50.278;19.134;2022-09-21T02:53:57;25.00;25.00;17.50
69746;PMS7003;57018;50.278;19.134;2022-09-21T02:56:27;24.50;22.75;15.00
69746;PMS7003;57018;50.278;19.134;2022-09-21T02:58:56;21.00;20.50;13.75
69746;PMS7003;57018;50.278;19.134;2022-09-21T03:01:25;20.25;19.25;12.75
69746;PMS7003;57018;50.278;19.134;2022-09-21T03:03:52;21.25;20.50;12.75
69746;PMS7003;57018;50.278;19.134;2022-09-21T03:06:19;27.75;23.25;16.25
69746;PMS7003;57018;50.278;19.134;2022-09-21T03:08:45;21.00;20.25;13.00
69746;PMS7003;57018;50.278;19.134;2022-09-21T03:11:15;26.50;20.75;15.25
69746;PMS7003;57018;50.278;19.134;2022-09-21T03:13:41;17.75;17.00;12.00
69746;PMS7003;57018;50.278;19.134;2022-09-21T03:16:07;20.00;19.25;14.25
69746;PMS7003;57018;50.278;19.134;2022-09-21T03:18:33;23.25;20.75;14.00
69746;PMS7003;57018;50.278;19.134;2022-09-21T03:20:59;19.25;18.00;12.00
69746;PMS7003;57018;50.278;19.134;2022-09-21T03:23:27;19.00;17.00;11.75
69746;PMS7003;57018;50.278;19.134;2022-09-21T03:25:54;22.50;19.50;13.00
69746;PMS7003;57018;50.278;19.134;2022-09-21T03:28:21;22.50;19.25;12.75
69746;PMS7003;57018;50.278;19.134;2022-09-21T03:30:47;22.25;20.75;14.25
69746;PMS7003;57018;50.278;19.134;2022-09-21T03:33:15;24.25;20.25;14.00
69746;PMS7003;57018;50.278;19.134;2022-09-21T03:35:43;20.00;19.00;13.00
69746;PMS7003;57018;50.278;19.134;2022-09-21T03:38:10;18.75;18.50;13.00
69746;PMS7003;57018;50.278;19.134;2022-09-21T03:40:37;22.50;19.25;13.00
69746;PMS7003;57018;50.278;19.134;2022-09-21T03:43:03;30.00;23.50;16.25
69746;PMS7003;57018;50.278;19.134;2022-09-21T03:45:29;23.25;19.00;14.75
69746;PMS7003;57018;50.278;19.134;2022-09-21T03:47:56;26.25;21.00;12.75
69746;PMS7003;57018;50.278;19.134;2022-09-21T03:50:24;24.00;18.75;13.25
69746;PMS7003;57018;50.278;19.134;2022-09-21T03:52:53;21.75;20.00;13.25
69746;PMS7003;57018;50.278;19.134;2022-09-21T03:55:20;23.00;17.00;12.00
69746;PMS7003;57018;50.278;19.134;2022-09-21T03:57:47;32.00;24.67;14.00
69746;PMS7003;57018;50.278;19.134;2022-09-21T04:00:14;20.25;17.75;13.25
69746;PMS7003;57018;50.278;19.134;2022-09-21T04:02:40;23.25;22.25;13.00
69746;PMS7003;57018;50.278;19.134;2022-09-21T04:05:10;29.00;22.25;12.25
69746;PMS7003;57018;50.278;19.134;2022-09-21T04:07:41;26.25;22.25;14.00
69746;PMS7003;57018;50.278;19.134;2022-09-21T04:10:10;29.50;25.75;14.25
69746;PMS7003;57018;50.278;19.134;2022-09-21T04:12:39;24.50;21.00;13.00
69746;PMS7003;57018;50.278;19.134;2022-09-21T04:15:13;26.50;22.75;13.75
69746;PMS7003;57018;50.278;19.134;2022-09-21T04:17:40;28.75;25.00;15.00
69746;PMS7003;57018;50.278;19.134;2022-09-21T04:20:07;17.50;15.50;13.25
69746;PMS7003;57018;50.278;19.134;2022-09-21T04:22:34;30.00;28.00;17.00
69746;PMS7003;57018;50.278;19.134;2022-09-21T04:25:04;25.50;24.50;15.25
69746;PMS7003;57018;50.278;19.134;2022-09-21T04:27:31;27.50;22.75;15.00
69746;PMS7003;57018;50.278;19.134;2022-09-21T04:29:57;32.50;24.75;17.75
69746;PMS7003;57018;50.278;19.134;2022-09-21T04:32:25;30.25;26.50;17.75
69746;PMS7003;57018;50.278;19.134;2022-09-21T04:34:51;31.50;28.25;17.50
69746;PMS7003;57018;50.278;19.134;2022-09-21T04:37:17;31.00;30.50;19.00
69746;PMS7003;57018;50.278;19.134;2022-09-21T04:39:43;31.25;26.50;15.50
69746;PMS7003;57018;50.278;19.134;2022-09-21T04:42:09;33.00;27.50;17.00
69746;PMS7003;57018;50.278;19.134;2022-09-21T04:44:35;34.75;30.00;18.50
69746;PMS7003;57018;50.278;19.134;2022-09-21T04:47:02;34.50;29.75;19.25
69746;PMS7003;57018;50.278;19.134;2022-09-21T04:49:28;30.00;28.50;17.75
69746;PMS7003;57018;50.278;19.134;2022-09-21T04:51:54;29.75;27.25;14.75
69746;PMS7003;57018;50.278;19.134;2022-09-21T04:54:20;24.50;23.25;15.75
69746;PMS7003;57018;50.278;19.134;2022-09-21T04:56:46;30.00;27.25;18.00
69746;PMS7003;57018;50.278;19.134;2022-09-21T04:59:12;28.75;26.00;16.25
69746;PMS7003;57018;50.278;19.134;2022-09-21T05:01:38;29.00;25.25;15.50
69746;PMS7003;57018;50.278;19.134;2022-09-21T05:04:05;27.75;23.25;16.00
69746;PMS7003;57018;50.278;19.134;2022-09-21T05:06:32;31.75;25.25;17.25
69746;PMS7003;57018;50.278;19.134;2022-09-21T05:08:59;29.00;26.50;17.75
69746;PMS7003;57018;50.278;19.134;2022-09-21T05:11:43;42.75;34.50;22.25
69746;PMS7003;57018;50.278;19.134;2022-09-21T05:14:10;29.50;27.50;15.50
69746;PMS7003;57018;50.278;19.134;2022-09-21T05:16:36;30.00;26.75;14.75
69746;PMS7003;57018;50.278;19.134;2022-09-21T05:19:02;31.25;28.50;17.50
69746;PMS7003;57018;50.278;19.134;2022-09-21T05:21:29;30.50;26.50;17.25
69746;PMS7003;57018;50.278;19.134;2022-09-21T05:23:58;32.00;27.75;18.00
69746;PMS7003;57018;50.278;19.134;2022-09-21T05:26:24;26.00;24.50;16.75
69746;PMS7003;57018;50.278;19.134;2022-09-21T05:28:50;27.50;22.75;15.25
69746;PMS7003;57018;50.278;19.134;2022-09-21T05:39:25;27.00;24.50;17.00
69746;PMS7003;57018;50.278;19.134;2022-09-21T05:41:52;29.50;27.75;15.50
69746;PMS7003;57018;50.278;19.134;2022-09-21T05:44:18;28.25;22.25;13.75
69746;PMS7003;57018;50.278;19.134;2022-09-21T05:49:17;22.25;21.50;14.00
69746;PMS7003;57018;50.278;19.134;2022-09-21T05:51:52;21.25;19.75;13.25
69746;PMS7003;57018;50.278;19.134;2022-09-21T06:05:14;19.50;16.50;12.50
69746;PMS7003;57018;50.278;19.134;2022-09-21T06:07:45;19.75;17.75;11.50
69746;PMS7003;57018;50.278;19.134;2022-09-21T06:10:12;24.50;18.75;12.25
69746;PMS7003;57018;50.278;19.134;2022-09-21T06:12:39;19.00;16.50;11.75
69746;PMS7003;57018;50.278;19.134;2022-09-21T06:15:06;21.25;20.25;13.00
69746;PMS7003;57018;50.278;19.134;2022-09-21T06:17:38;22.25;18.00;13.00
69746;PMS7003;57018;50.278;19.134;2022-09-21T06:20:05;35.00;31.75;19.00
69746;PMS7003;57018;50.278;19.134;2022-09-21T06:22:32;21.25;19.00;12.25
69746;PMS7003;57018;50.278;19.134;2022-09-21T06:24:59;20.50;16.25;12.75
69746;PMS7003;57018;50.278;19.134;2022-09-21T06:27:26;21.00;17.75;11.50
69746;PMS7003;57018;50.278;19.134;2022-09-21T06:29:53;26.00;20.00;12.50
69746;PMS7003;57018;50.278;19.134;2022-09-21T06:32:19;24.00;19.75;13.00
69746;PMS7003;57018;50.278;19.134;2022-09-21T06:34:45;21.50;18.75;11.25
69746;PMS7003;57018;50.278;19.134;2022-09-21T06:37:11;24.00;19.50;13.00
69746;PMS7003;57018;50.278;19.134;2022-09-21T06:39:37;27.75;24.00;12.50
69746;PMS7003;57018;50.278;19.134;2022-09-21T06:42:03;22.00;19.50;11.00
69746;PMS7003;57018;50.278;19.134;2022-09-21T06:44:30;20.50;16.75;10.75
69746;PMS7003;57018;50.278;19.134;2022-09-21T06:46:56;19.50;17.75;10.00
69746;PMS7003;57018;50.278;19.134;2022-09-21T06:49:22;20.75;17.75;13.00
69746;PMS7003;57018;50.278;19.134;2022-09-21T06:51:48;17.75;15.25;12.00
69746;PMS7003;57018;50.278;19.134;2022-09-21T06:54:14;17.75;15.25;10.25
69746;PMS7003;57018;50.278;19.134;2022-09-21T06:56:42;16.25;16.25;11.50
69746;PMS7003;57018;50.278;19.134;2022-09-21T06:59:09;15.00;15.00;8.50
69746;PMS7003;57018;50.278;19.134;2022-09-21T07:01:35;16.50;16.00;11.50
69746;PMS7003;57018;50.278;19.134;2022-09-21T07:04:01;20.00;19.50;12.75
69746;PMS7003;57018;50.278;19.134;2022-09-21T07:06:27;21.50;17.50;12.25
69746;PMS7003;57018;50.278;19.134;2022-09-21T07:08:54;19.50;18.00;12.25
69746;PMS7003;57018;50.278;19.134;2022-09-21T07:11:20;19.75;14.25;9.00
69746;PMS7003;57018;50.278;19.134;2022-09-21T07:13:48;18.50;17.00;10.75
69746;PMS7003;57018;50.278;19.134;2022-09-21T07:16:15;15.00;14.00;9.50
69746;PMS7003;57018;50.278;19.134;2022-09-21T07:18:41;13.25;13.00;8.75
69746;PMS7003;57018;50.278;19.134;2022-09-21T07:21:08;18.75;17.50;10.25
69746;PMS7003;57018;50.278;19.134;2022-09-21T07:23:35;14.50;14.25;9.25
69746;PMS7003;57018;50.278;19.134;2022-09-21T07:26:04;17.25;16.00;12.50
69746;PMS7003;57018;50.278;19.134;2022-09-21T07:28:31;16.25;15.50;9.75
69746;PMS7003;57018;50.278;19.134;2022-09-21T07:30:57;19.00;17.25;12.75
69746;PMS7003;57018;50.278;19.134;2022-09-21T07:33:25;15.50;13.75;8.25
69746;PMS7003;57018;50.278;19.134;2022-09-21T07:35:52;20.75;19.50;13.25
69746;PMS7003;57018;50.278;19.134;2022-09-21T07:38:21;22.50;20.25;12.75
69746;PMS7003;57018;50.278;19.134;2022-09-21T07:40:48;17.25;17.00;11.75
69746;PMS7003;57018;50.278;19.134;2022-09-21T07:43:15;18.75;17.25;12.00
69746;PMS7003;57018;50.278;19.134;2022-09-21T07:45:41;15.50;15.50;11.00
69746;PMS7003;57018;50.278;19.134;2022-09-21T07:48:07;16.75;16.75;11.25
69746;PMS7003;57018;50.278;19.134;2022-09-21T07:50:33;17.50;15.75;11.00
69746;PMS7003;57018;50.278;19.134;2022-09-21T07:53:00;17.00;17.00;11.00
69746;PMS7003;57018;50.278;19.134;2022-09-21T07:55:28;17.00;16.00;11.75
69746;PMS7003;57018;50.278;19.134;2022-09-21T07:57:58;24.33;21.33;14.00
69746;PMS7003;57018;50.278;19.134;2022-09-21T08:00:43;20.25;20.00;12.00
69746;PMS7003;57018;50.278;19.134;2022-09-21T08:03:09;15.50;14.00;8.25
69746;PMS7003;57018;50.278;19.134;2022-09-21T08:05:36;18.25;18.00;11.50
69746;PMS7003;57018;50.278;19.134;2022-09-21T08:08:02;21.25;18.25;11.75
69746;PMS7003;57018;50.278;19.134;2022-09-21T08:10:28;18.00;17.25;10.25
69746;PMS7003;57018;50.278;19.134;2022-09-21T08:12:56;20.00;20.00;13.25
69746;PMS7003;57018;50.278;19.134;2022-09-21T08:15:22;20.00;18.00;11.75
69746;PMS7003;57018;50.278;19.134;2022-09-21T08:17:48;19.50;16.50;12.50
69746;PMS7003;57018;50.278;19.134;2022-09-21T08:20:16;23.75;20.25;11.50
69746;PMS7003;57018;50.278;19.134;2022-09-21T08:22:42;16.50;15.25;10.00
69746;PMS7003;57018;50.278;19.134;2022-09-21T08:25:09;17.25;14.00;11.00
69746;PMS7003;57018;50.278;19.134;2022-09-21T08:27:35;16.75;13.50;5.00
69746;PMS7003;57018;50.278;19.134;2022-09-21T08:30:04;17.00;17.00;11.25
69746;PMS7003;57018;50.278;19.134;2022-09-21T08:32:32;15.25;13.25;11.00
69746;PMS7003;57018;50.278;19.134;2022-09-21T08:34:58;15.75;14.00;8.25
69746;PMS7003;57018;50.278;19.134;2022-09-21T08:37:24;14.25;14.25;10.25
69746;PMS7003;57018;50.278;19.134;2022-09-21T08:39:50;16.00;15.50;11.25
69746;PMS7003;57018;50.278;19.134;2022-09-21T08:42:30;14.25;13.25;8.75
69746;PMS7003;57018;50.278;19.134;2022-09-21T08:45:03;19.25;13.75;9.50
69746;PMS7003;57018;50.278;19.134;2022-09-21T08:47:39;12.75;12.50;7.75
69746;PMS7003;57018;50.278;19.134;2022-09-21T08:50:51;15.75;14.75;10.50
69746;PMS7003;57018;50.278;19.134;2022-09-21T08:52:47;22.00;19.00;12.75
69746;PMS7003;57018;50.278;19.134;2022-09-21T08:55:18;60.25;46.25;28.25
69746;PMS7003;57018;50.278;19.134;2022-09-21T08:57:45;19.50;13.25;7.75
69746;PMS7003;57018;50.278;19.134;2022-09-21T09:00:12;23.00;20.75;13.25
69746;PMS7003;57018;50.278;19.134;2022-09-21T09:05:51;42.25;34.50;18.00
69746;PMS7003;57018;50.278;19.134;2022-09-21T09:19:45;13.00;10.25;6.75
69746;PMS7003;57018;50.278;19.134;2022-09-21T09:22:11;21.50;16.50;12.25
69746;PMS7003;57018;50.278;19.134;2022-09-21T09:24:51;32.75;28.25;18.50
69746;PMS7003;57018;50.278;19.134;2022-09-21T09:32:29;13.25;13.00;9.00
69746;PMS7003;57018;50.278;19.134;2022-09-21T09:35:26;13.00;12.50;9.00
69746;PMS7003;57018;50.278;19.134;2022-09-21T09:41:22;12.25;11.25;8.25
69746;PMS7003;57018;50.278;19.134;2022-09-21T09:43:28;18.00;13.50;9.25
69746;PMS7003;57018;50.278;19.134;2022-09-21T09:51:37;14.50;10.75;7.00
69746;PMS7003;57018;50.278;19.134;2022-09-21T09:54:07;13.00;11.25;7.75
69746;PMS7003;57018;50.278;19.134;2022-09-21T09:56:35;15.00;14.25;10.00
69746;PMS7003;57018;50.278;19.134;2022-09-21T09:59:02;16.75;16.25;11.25
69746;PMS7003;57018;50.278;19.134;2022-09-21T10:04:11;13.25;13.25;10.25
69746;PMS7003;57018;50.278;19.134;2022-09-21T10:06:35;13.75;12.25;8.50
69746;PMS7003;57018;50.278;19.134;2022-09-21T10:11:47;14.00;14.00;9.00
69746;PMS7003;57018;50.278;19.134;2022-09-21T10:14:16;13.75;12.00;9.50
69746;PMS7003;57018;50.278;19.134;2022-09-21T10:16:47;14.00;13.75;8.25
69746;PMS7003;57018;50.278;19.134;2022-09-21T10:19:20;13.75;12.00;8.50
69746;PMS7003;57018;50.278;19.134;2022-09-21T10:21:50;10.50;10.00;8.00
69746;PMS7003;57018;50.278;19.134;2022-09-21T10:24:30;10.75;8.75;6.00
69746;PMS7003;57018;50.278;19.134;2022-09-21T10:27:03;10.50;10.50;6.50
69746;PMS7003;57018;50.278;19.134;2022-09-21T10:29:42;11.50;10.50;7.50
69746;PMS7003;57018;50.278;19.134;2022-09-21T10:37:30;8.00;8.00;5.50
69746;PMS7003;57018;50.278;19.134;2022-09-21T10:40:03;9.50;9.00;6.00
69746;PMS7003;57018;50.278;19.134;2022-09-21T10:42:35;8.50;8.50;6.50
69746;PMS7003;57018;50.278;19.134;2022-09-21T10:45:23;12.00;11.00;7.75
69746;PMS7003;57018;50.278;19.134;2022-09-21T10:47:57;7.50;7.00;5.00
69746;PMS7003;57018;50.278;19.134;2022-09-21T10:50:36;10.50;9.25;7.00
69746;PMS7003;57018;50.278;19.134;2022-09-21T10:55:46;10.75;9.00;6.75
69746;PMS7003;57018;50.278;19.134;2022-09-21T10:58:10;8.75;8.75;6.00
69746;PMS7003;57018;50.278;19.134;2022-09-21T11:00:49;10.75;10.25;7.00
69746;PMS7003;57018;50.278;19.134;2022-09-21T11:06:13;9.00;9.00;6.50
69746;PMS7003;57018;50.278;19.134;2022-09-21T11:08:54;6.50;6.50;4.75
69746;PMS7003;57018;50.278;19.134;2022-09-21T11:14:18;9.50;9.25;6.00
69746;PMS7003;57018;50.278;19.134;2022-09-21T11:17:02;10.00;9.00;7.00
69746;PMS7003;57018;50.278;19.134;2022-09-21T11:19:32;13.75;11.75;8.00
69746;PMS7003;57018;50.278;19.134;2022-09-21T11:25:34;12.75;12.75;8.75
69746;PMS7003;57018;50.278;19.134;2022-09-21T11:27:41;7.50;7.50;6.00
69746;PMS7003;57018;50.278;19.134;2022-09-21T11:30:13;32.00;30.25;18.50
69746;PMS7003;57018;50.278;19.134;2022-09-21T11:43:53;7.75;7.50;6.00
69746;PMS7003;57018;50.278;19.134;2022-09-21T11:46:44;9.25;9.00;6.00
69746;PMS7003;57018;50.278;19.134;2022-09-21T11:49:37;7.75;7.00;4.50
69746;PMS7003;57018;50.278;19.134;2022-09-21T11:52:19;9.50;9.50;7.00
69746;PMS7003;57018;50.278;19.134;2022-09-21T12:00:40;11.50;11.50;7.25
69746;PMS7003;57018;50.278;19.134;2022-09-21T12:08:57;11.00;11.00;7.00
69746;PMS7003;57018;50.278;19.134;2022-09-21T12:14:08;11.50;11.50;8.25
69746;PMS7003;57018;50.278;19.134;2022-09-21T12:22:07;13.25;13.25;9.00
69746;PMS7003;57018;50.278;19.134;2022-09-21T12:24:34;11.25;11.25;8.00
69746;PMS7003;57018;50.278;19.134;2022-09-21T12:27:03;13.25;12.25;9.00
69746;PMS7003;57018;50.278;19.134;2022-09-21T12:29:38;12.75;11.75;8.25
69746;PMS7003;57018;50.278;19.134;2022-09-21T12:32:14;11.25;9.50;6.75
69746;PMS7003;57018;50.278;19.134;2022-09-21T12:34:43;13.00;13.00;10.00
69746;PMS7003;57018;50.278;19.134;2022-09-21T12:37:18;15.25;12.50;8.50
69746;PMS7003;57018;50.278;19.134;2022-09-21T12:39:56;10.00;10.00;8.00
69746;PMS7003;57018;50.278;19.134;2022-09-21T12:42:30;13.50;13.25;10.00
69746;PMS7003;57018;50.278;19.134;2022-09-21T12:45:21;11.25;11.25;7.25
69746;PMS7003;57018;50.278;19.134;2022-09-21T12:47:57;11.75;11.75;8.00
69746;PMS7003;57018;50.278;19.134;2022-09-21T12:53:16;10.25;10.25;8.50
69746;PMS7003;57018;50.278;19.134;2022-09-21T12:58:29;12.75;10.75;8.25
69746;PMS7003;57018;50.278;19.134;2022-09-21T13:09:10;13.50;11.75;9.25
69746;PMS7003;57018;50.278;19.134;2022-09-21T13:11:53;9.50;9.25;7.50
69746;PMS7003;57018;50.278;19.134;2022-09-21T13:14:18;10.25;10.25;7.25
69746;PMS7003;57018;50.278;19.134;2022-09-21T13:16:52;12.75;12.00;9.25
69746;PMS7003;57018;50.278;19.134;2022-09-21T13:19:22;8.75;8.50;6.25
69746;PMS7003;57018;50.278;19.134;2022-09-21T13:22:09;7.25;6.50;5.00
69746;PMS7003;57018;50.278;19.134;2022-09-21T13:24:40;9.50;8.00;5.25
69746;PMS7003;57018;50.278;19.134;2022-09-21T13:27:09;11.75;11.75;6.75
69746;PMS7003;57018;50.278;19.134;2022-09-21T13:29:38;10.00;8.00;6.25
69746;PMS7003;57018;50.278;19.134;2022-09-21T13:34:46;21.25;18.75;11.25
69746;PMS7003;57018;50.278;19.134;2022-09-21T13:47:52;12.25;10.25;8.25
69746;PMS7003;57018;50.278;19.134;2022-09-21T13:52:57;11.00;8.00;6.75
69746;PMS7003;57018;50.278;19.134;2022-09-21T13:55:27;9.50;7.75;5.75
69746;PMS7003;57018;50.278;19.134;2022-09-21T13:58:01;8.00;7.00;6.00
69746;PMS7003;57018;50.278;19.134;2022-09-21T14:00:35;7.50;6.75;4.50
69746;PMS7003;57018;50.278;19.134;2022-09-21T14:03:21;6.00;6.00;4.00
69746;PMS7003;57018;50.278;19.134;2022-09-21T14:05:54;5.00;5.00;3.75
69746;PMS7003;57018;50.278;19.134;2022-09-21T14:08:25;9.25;6.50;5.00
69746;PMS7003;57018;50.278;19.134;2022-09-21T14:13:38;6.75;6.25;5.00
69746;PMS7003;57018;50.278;19.134;2022-09-21T14:24:39;5.25;5.25;4.00
69746;PMS7003;57018;50.278;19.134;2022-09-21T14:32:45;6.75;6.75;4.25
69746;PMS7003;57018;50.278;19.134;2022-09-21T14:35:19;6.00;5.00;4.00
69746;PMS7003;57018;50.278;19.134;2022-09-21T14:37:57;6.50;5.75;4.25
69746;PMS7003;57018;50.278;19.134;2022-09-21T14:40:27;7.50;6.00;4.75
69746;PMS7003;57018;50.278;19.134;2022-09-21T14:43:00;7.00;4.25;3.75
69746;PMS7003;57018;50.278;19.134;2022-09-21T14:45:36;7.75;7.00;5.25
69746;PMS7003;57018;50.278;19.134;2022-09-21T14:48:07;6.00;6.00;5.50
69746;PMS7003;57018;50.278;19.134;2022-09-21T14:50:40;5.00;5.00;4.00
69746;PMS7003;57018;50.278;19.134;2022-09-21T14:53:26;6.75;6.50;4.75
69746;PMS7003;57018;50.278;19.134;2022-09-21T14:59:02;5.50;5.50;4.00
69746;PMS7003;57018;50.278;19.134;2022-09-21T15:02:02;14.50;14.00;10.25
69746;PMS7003;57018;50.278;19.134;2022-09-21T15:07:19;5.75;5.75;3.25
69746;PMS7003;57018;50.278;19.134;2022-09-21T15:10:13;7.50;7.00;6.00
69746;PMS7003;57018;50.278;19.134;2022-09-21T15:13:20;8.75;8.25;5.50
69746;PMS7003;57018;50.278;19.134;2022-09-21T15:16:08;5.25;5.00;3.75
69746;PMS7003;57018;50.278;19.134;2022-09-21T15:18:48;5.50;5.50;4.50
69746;PMS7003;57018;50.278;19.134;2022-09-21T15:21:24;9.75;8.50;6.00
69746;PMS7003;57018;50.278;19.134;2022-09-21T15:23:54;7.25;6.25;4.75
69746;PMS7003;57018;50.278;19.134;2022-09-21T15:26:25;8.25;7.25;5.50
69746;PMS7003;57018;50.278;19.134;2022-09-21T15:29:02;9.25;7.00;5.00
69746;PMS7003;57018;50.278;19.134;2022-09-21T15:31:33;8.25;8.25;6.00
69746;PMS7003;57018;50.278;19.134;2022-09-21T15:34:04;6.75;6.75;5.00
69746;PMS7003;57018;50.278;19.134;2022-09-21T15:36:33;6.25;5.00;4.00
69746;PMS7003;57018;50.278;19.134;2022-09-21T15:39:02;6.50;5.50;3.50
69746;PMS7003;57018;50.278;19.134;2022-09-21T15:44:15;6.00;6.00;5.00
69746;PMS7003;57018;50.278;19.134;2022-09-21T15:46:47;3.25;3.25;3.00
69746;PMS7003;57018;50.278;19.134;2022-09-21T15:49:17;3.00;3.00;3.00
69746;PMS7003;57018;50.278;19.134;2022-09-21T15:52:24;5.25;5.00;4.00
69746;PMS7003;57018;50.278;19.134;2022-09-21T15:54:35;3.25;3.00;2.00
69746;PMS7003;57018;50.278;19.134;2022-09-21T16:00:01;4.00;4.00;3.25
69746;PMS7003;57018;50.278;19.134;2022-09-21T16:02:32;4.75;4.75;3.00
69746;PMS7003;57018;50.278;19.134;2022-09-21T16:05:00;5.75;4.00;3.25
69746;PMS7003;57018;50.278;19.134;2022-09-21T16:10:23;7.75;7.75;5.00
69746;PMS7003;57018;50.278;19.134;2022-09-21T16:12:50;8.50;7.50;5.00
69746;PMS7003;57018;50.278;19.134;2022-09-21T16:15:24;6.25;6.00;5.00
69746;PMS7003;57018;50.278;19.134;2022-09-21T16:17:54;6.00;6.00;4.50
69746;PMS7003;57018;50.278;19.134;2022-09-21T16:20:39;4.50;4.50;4.00
69746;PMS7003;57018;50.278;19.134;2022-09-21T16:23:13;5.00;5.00;4.50
69746;PMS7003;57018;50.278;19.134;2022-09-21T16:25:41;7.50;6.75;5.00
69746;PMS7003;57018;50.278;19.134;2022-09-21T16:28:54;12.00;11.00;8.00
69746;PMS7003;57018;50.278;19.134;2022-09-21T16:30:48;26.50;21.00;16.25
69746;PMS7003;57018;50.278;19.134;2022-09-21T16:38:51;24.00;21.75;14.00
69746;PMS7003;57018;50.278;19.134;2022-09-21T16:41:18;16.75;16.75;12.50
69746;PMS7003;57018;50.278;19.134;2022-09-21T16:43:46;20.25;17.50;10.00
69746;PMS7003;57018;50.278;19.134;2022-09-21T16:46:15;13.00;12.25;7.50
69746;PMS7003;57018;50.278;19.134;2022-09-21T16:48:42;17.50;15.75;11.50
69746;PMS7003;57018;50.278;19.134;2022-09-21T16:51:13;14.75;14.00;10.25
69746;PMS7003;57018;50.278;19.134;2022-09-21T16:53:42;16.75;15.25;9.25
69746;PMS7003;57018;50.278;19.134;2022-09-21T16:56:11;22.25;19.75;13.00
69746;PMS7003;57018;50.278;19.134;2022-09-21T16:58:39;18.25;17.75;12.00
69746;PMS7003;57018;50.278;19.134;2022-09-21T17:01:09;16.00;16.00;11.25
69746;PMS7003;57018;50.278;19.134;2022-09-21T17:03:40;22.75;19.25;13.75
69746;PMS7003;57018;50.278;19.134;2022-09-21T17:06:14;21.25;21.25;14.75
69746;PMS7003;57018;50.278;19.134;2022-09-21T17:08:42;21.50;20.25;14.50
69746;PMS7003;57018;50.278;19.134;2022-09-21T17:11:11;26.25;21.75;16.00
69746;PMS7003;57018;50.278;19.134;2022-09-21T17:13:37;23.00;21.75;13.50
69746;PMS7003;57018;50.278;19.134;2022-09-21T17:16:03;28.75;24.75;16.25
69746;PMS7003;57018;50.278;19.134;2022-09-21T17:18:30;25.75;23.25;15.00